Time;durP1;ratioP1;P1;durP2;ratioP2;P2;SDS_P1;SDS_P2;PMS_P1;PMS_P2;Temp;Humidity;BMP_temperature;BMP_pressure;BME280_temperature;BME280_humidity;BME280_pressure;Samples;Min_cycle;Max_cycle;Signal;HPM_P1;HPM_P2
2022/01/19 00:00:27;;;;;;;6.60;2.40;;;7.00;99.90;;;;;;5087317;28;20189;-65
2022/01/19 00:02:53;;;;;;;14.03;2.30;;;7.00;99.90;;;;;;5070523;28;20213;-66
2022/01/19 00:05:20;;;;;;;11.10;2.60;;;6.90;99.90;;;;;;5078651;28;20288;-64
2022/01/19 00:07:46;;;;;;;8.07;2.20;;;7.00;99.90;;;;;;5058463;28;20193;-65
2022/01/19 00:10:17;;;;;;;11.87;1.90;;;7.00;99.90;;;;;;5100529;28;20189;-65
2022/01/19 00:12:45;;;;;;;10.60;1.80;;;6.90;99.90;;;;;;5083368;28;20213;-66
2022/01/19 00:15:12;;;;;;;6.10;1.80;;;7.00;99.90;;;;;;5087525;28;20292;-67
2022/01/19 00:17:40;;;;;;;4.10;1.73;;;7.00;99.90;;;;;;5083473;28;20217;-66
2022/01/19 00:20:08;;;;;;;8.87;1.63;;;7.10;99.90;;;;;;5083535;28;20189;-64
2022/01/19 00:22:35;;;;;;;8.70;1.53;;;7.10;99.90;;;;;;5092470;28;20194;-68
2022/01/19 00:25:01;;;;;;;7.17;1.67;;;7.20;99.90;;;;;;5096894;28;20190;-65
2022/01/19 00:27:27;;;;;;;7.50;1.63;;;7.30;99.90;;;;;;5079577;28;20186;-67
2022/01/19 00:29:54;;;;;;;9.43;1.50;;;7.40;99.90;;;;;;5102498;28;20390;-67
2022/01/19 00:32:22;;;;;;;6.50;1.60;;;7.40;99.90;;;;;;5078562;28;20299;-66
2022/01/19 00:34:49;;;;;;;13.17;2.00;;;7.40;99.90;;;;;;5076607;28;20250;-65
2022/01/19 00:37:15;;;;;;;5.93;1.80;;;7.40;99.90;;;;;;5087474;28;20217;-68
2022/01/19 00:39:44;;;;;;;9.27;1.63;;;7.40;99.90;;;;;;5097973;28;20875;-64
2022/01/19 00:42:10;;;;;;;9.17;1.50;;;7.40;99.90;;;;;;5078070;28;20199;-67
2022/01/19 00:44:38;;;;;;;4.37;1.53;;;7.40;99.90;;;;;;5083084;28;20190;-65
2022/01/19 00:47:06;;;;;;;10.47;1.90;;;7.40;99.90;;;;;;5084369;28;20193;-65
2022/01/19 00:49:32;;;;;;;5.33;1.40;;;7.40;99.90;;;;;;5083972;28;20328;-65
2022/01/19 00:51:58;;;;;;;10.50;1.33;;;7.40;99.90;;;;;;5074587;28;20208;-64
2022/01/19 00:54:25;;;;;;;3.23;1.40;;;7.40;99.90;;;;;;5078452;28;20664;-64
2022/01/19 00:56:51;;;;;;;6.57;1.70;;;7.40;99.90;;;;;;5103856;28;20571;-66
2022/01/19 00:59:17;;;;;;;6.03;1.10;;;7.40;99.90;;;;;;5085225;28;20220;-65
2022/01/19 01:01:43;;;;;;;7.77;1.50;;;7.40;99.90;;;;;;5098569;28;20538;-65
2022/01/19 01:04:10;;;;;;;6.67;1.70;;;7.30;99.90;;;;;;5106170;28;20196;-64
2022/01/19 01:06:38;;;;;;;5.90;1.30;;;7.20;99.90;;;;;;5079392;28;20189;-67
2022/01/19 01:09:04;;;;;;;5.40;1.20;;;7.20;99.90;;;;;;5101291;28;20193;-65
2022/01/19 01:11:35;;;;;;;5.83;1.43;;;7.20;99.90;;;;;;5101009;28;20194;-66
2022/01/19 01:16:34;;;;;;;5.67;1.37;;;7.10;99.90;;;;;;5086230;28;20279;-65
2022/01/19 01:19:03;;;;;;;7.97;1.77;;;7.10;99.90;;;;;;5090765;28;20751;-65
2022/01/19 01:21:30;;;;;;;8.97;1.53;;;7.00;99.90;;;;;;5083097;28;20729;-67
2022/01/19 01:23:56;;;;;;;6.10;1.60;;;7.00;99.90;;;;;;5083212;28;20177;-67
2022/01/19 01:26:23;;;;;;;6.93;1.50;;;7.00;99.90;;;;;;5088169;28;20197;-63
2022/01/19 01:28:49;;;;;;;5.10;1.40;;;6.90;99.90;;;;;;5089742;28;20217;-65
2022/01/19 01:31:15;;;;;;;8.97;1.57;;;6.90;99.90;;;;;;5087850;28;20488;-64
2022/01/19 01:33:42;;;;;;;6.00;1.40;;;7.00;99.90;;;;;;5084771;28;20205;-65
2022/01/19 01:36:09;;;;;;;7.87;1.73;;;7.00;99.90;;;;;;5090476;28;20213;-66
2022/01/19 01:38:37;;;;;;;6.20;1.37;;;7.00;99.90;;;;;;5089883;28;20212;-65
2022/01/19 01:41:05;;;;;;;8.10;1.50;;;7.00;99.90;;;;;;5083890;28;20685;-66
2022/01/19 01:43:31;;;;;;;7.23;1.80;;;6.90;99.90;;;;;;5077339;28;20260;-66
2022/01/19 01:46:04;;;;;;;9.47;1.70;;;6.90;99.90;;;;;;5087376;28;20284;-65
2022/01/19 01:48:31;;;;;;;5.70;1.10;;;6.90;99.90;;;;;;5108543;28;20192;-65
2022/01/19 01:53:42;;;;;;;5.77;1.57;;;6.90;99.90;;;;;;5083057;28;20194;-66
2022/01/19 01:56:14;;;;;;;10.97;2.40;;;6.90;99.90;;;;;;5089347;28;20197;-67
2022/01/19 01:58:47;;;;;;;5.20;1.83;;;6.90;99.90;;;;;;5072604;28;20425;-65
2022/01/19 02:01:14;;;;;;;5.93;1.27;;;6.90;99.90;;;;;;5089621;28;20687;-64
2022/01/19 02:03:45;;;;;;;8.93;1.70;;;6.90;99.90;;;;;;5088123;28;20661;-67
2022/01/19 02:23:34;;;;;;;5.00;1.20;;;6.60;99.90;;;;;;5102588;28;20181;-67
2022/01/19 02:26:06;;;;;;;5.43;1.50;;;6.60;99.90;;;;;;5087560;28;20239;-67
2022/01/19 02:41:52;;;;;;;9.30;1.50;;;6.60;99.90;;;;;;5096146;28;20189;-65
2022/01/19 02:49:50;;;;;;;7.27;1.67;;;6.50;99.90;;;;;;5082531;28;20224;-65
2022/01/19 02:52:18;;;;;;;7.47;1.53;;;6.50;99.90;;;;;;5096733;28;20191;-65
2022/01/19 02:54:46;;;;;;;9.07;1.57;;;6.50;99.90;;;;;;5105726;28;20197;-65
2022/01/19 02:57:13;;;;;;;9.20;1.77;;;6.50;99.90;;;;;;5062246;28;20186;-66
2022/01/19 03:10:40;;;;;;;7.43;1.40;;;6.40;99.90;;;;;;5104313;28;20193;-65
2022/01/19 03:13:10;;;;;;;6.07;1.40;;;6.40;99.90;;;;;;5093234;28;20196;-65
2022/01/19 03:15:36;;;;;;;7.43;1.53;;;6.40;99.90;;;;;;5061474;28;20719;-65
2022/01/19 03:18:02;;;;;;;5.93;1.50;;;6.40;99.90;;;;;;5096090;28;20213;-65
2022/01/19 03:20:29;;;;;;;5.27;1.40;;;6.40;99.90;;;;;;5079543;28;20196;-65
2022/01/19 03:25:23;;;;;;;7.60;1.40;;;6.40;99.90;;;;;;5096851;28;20526;-65
2022/01/19 03:27:50;;;;;;;4.80;1.40;;;6.40;99.90;;;;;;5086848;28;20204;-65
2022/01/19 03:30:18;;;;;;;11.67;2.03;;;6.30;99.90;;;;;;5085087;28;20567;-64
2022/01/19 03:32:46;;;;;;;11.03;1.87;;;6.40;99.90;;;;;;5100947;28;20193;-65
2022/01/19 03:35:14;;;;;;;8.17;1.73;;;6.30;99.90;;;;;;5086896;28;20657;-65
2022/01/19 03:37:41;;;;;;;8.27;1.50;;;6.30;99.90;;;;;;5078160;28;20201;-65
2022/01/19 03:40:09;;;;;;;6.57;1.40;;;6.30;99.90;;;;;;5079264;28;20239;-66
2022/01/19 03:42:35;;;;;;;3.80;1.60;;;6.40;99.90;;;;;;5097106;28;20698;-67
2022/01/19 03:45:09;;;;;;;6.60;1.40;;;6.30;99.90;;;;;;5077558;28;20251;-64
2022/01/19 03:47:45;;;;;;;5.10;1.50;;;6.30;99.90;;;;;;5077378;28;20209;-65
2022/01/19 03:50:11;;;;;;;4.10;1.17;;;6.20;99.90;;;;;;5066894;28;20750;-63
2022/01/19 03:52:38;;;;;;;7.60;1.47;;;6.20;99.90;;;;;;5079075;28;20193;-66
2022/01/19 03:55:06;;;;;;;8.33;1.60;;;6.20;99.90;;;;;;5102599;28;20203;-66
2022/01/19 03:57:32;;;;;;;6.53;1.27;;;6.10;99.90;;;;;;5101151;28;20289;-64
2022/01/19 03:59:59;;;;;;;6.67;1.33;;;6.20;99.90;;;;;;5081527;28;20218;-66
2022/01/19 04:02:25;;;;;;;5.17;1.23;;;6.10;99.90;;;;;;5081756;28;20257;-65
2022/01/19 04:05:02;;;;;;;4.23;1.33;;;6.20;99.90;;;;;;5067303;28;20193;-66
2022/01/19 04:07:28;;;;;;;5.97;1.30;;;6.10;99.90;;;;;;5101715;28;20269;-66
2022/01/19 04:09:58;;;;;;;5.43;1.70;;;6.10;99.90;;;;;;5093794;28;20189;-63
2022/01/19 04:15:11;;;;;;;7.83;1.30;;;6.10;99.90;;;;;;5075590;28;20189;-64
2022/01/19 04:17:44;;;;;;;3.67;1.00;;;6.10;99.90;;;;;;5073536;28;20202;-65
2022/01/19 04:20:11;;;;;;;4.83;1.03;;;6.10;99.90;;;;;;5081602;28;20239;-64
2022/01/19 04:22:37;;;;;;;5.23;1.37;;;6.20;99.90;;;;;;5104150;28;20238;-63
2022/01/19 04:25:05;;;;;;;3.20;1.20;;;6.20;99.90;;;;;;5097259;28;20188;-65
2022/01/19 04:27:32;;;;;;;6.10;1.37;;;6.20;99.90;;;;;;5077070;28;20284;-65
2022/01/19 04:30:10;;;;;;;3.13;1.10;;;6.20;99.90;;;;;;5084362;28;20223;-65
2022/01/19 04:35:28;;;;;;;6.47;1.53;;;6.30;99.90;;;;;;5099855;28;20677;-66
2022/01/19 05:02:55;;;;;;;7.70;1.40;;;6.40;99.90;;;;;;5089940;28;20181;-65
2022/01/19 05:08:00;;;;;;;6.60;1.30;;;6.40;99.90;;;;;;5061411;28;20234;-64
2022/01/19 05:13:34;;;;;;;4.40;1.23;;;6.30;99.90;;;;;;5105570;27;20211;-65
2022/01/19 05:16:01;;;;;;;4.43;1.57;;;6.30;99.90;;;;;;5101114;28;20773;-64
2022/01/19 05:18:27;;;;;;;3.23;1.30;;;6.20;99.90;;;;;;5081733;28;20292;-64
2022/01/19 05:20:54;;;;;;;4.40;1.50;;;6.20;99.90;;;;;;5087102;28;20197;-63
2022/01/19 05:23:20;;;;;;;7.83;1.37;;;6.20;99.90;;;;;;5081601;28;20178;-65
2022/01/19 05:25:47;;;;;;;4.90;1.67;;;6.20;99.90;;;;;;5104198;27;20249;-65
2022/01/19 05:28:14;;;;;;;4.47;1.70;;;6.20;99.90;;;;;;5090498;27;20212;-66
2022/01/19 05:30:41;;;;;;;4.73;1.23;;;6.30;99.90;;;;;;5089731;28;20181;-63
2022/01/19 05:33:07;;;;;;;3.03;1.33;;;6.20;99.90;;;;;;5081773;28;20189;-66
2022/01/19 05:35:34;;;;;;;7.40;1.50;;;6.30;99.90;;;;;;5084387;28;20197;-66
2022/01/19 05:38:03;;;;;;;5.30;1.20;;;6.20;99.90;;;;;;5065099;28;20720;-64
2022/01/19 05:40:29;;;;;;;5.37;1.10;;;6.20;99.90;;;;;;5099096;28;20574;-64
2022/01/19 05:42:55;;;;;;;3.33;1.30;;;6.20;99.90;;;;;;5101482;27;20218;-66
2022/01/19 05:45:24;;;;;;;6.50;1.33;;;6.20;99.90;;;;;;5086411;28;20667;-66
2022/01/19 05:47:50;;;;;;;2.40;0.90;;;6.20;99.90;;;;;;5066089;27;20697;-65
2022/01/19 05:50:18;;;;;;;8.80;1.30;;;6.20;99.90;;;;;;5096977;27;20212;-65
2022/01/19 05:52:44;;;;;;;9.53;1.60;;;6.20;99.90;;;;;;5093159;27;20224;-66
2022/01/19 05:55:10;;;;;;;10.20;1.53;;;6.20;99.90;;;;;;5090971;28;20185;-66
2022/01/19 05:57:37;;;;;;;4.27;1.30;;;6.20;99.90;;;;;;5099665;28;20312;-65
2022/01/19 06:00:06;;;;;;;4.93;1.77;;;6.20;99.90;;;;;;5087676;28;20605;-66
2022/01/19 06:02:32;;;;;;;5.17;1.73;;;6.20;99.90;;;;;;5106203;28;20185;-66
2022/01/19 06:04:58;;;;;;;4.63;1.40;;;6.20;99.90;;;;;;5106691;27;20684;-65
2022/01/19 06:07:28;;;;;;;7.97;2.00;;;6.20;99.90;;;;;;5088082;28;20276;-64
2022/01/19 06:10:07;;;;;;;4.33;1.67;;;6.20;99.90;;;;;;5082700;28;20189;-65
2022/01/19 06:12:34;;;;;;;4.87;1.80;;;6.30;99.90;;;;;;5102197;27;20226;-64
2022/01/19 06:15:01;;;;;;;5.57;1.40;;;6.30;99.90;;;;;;5107010;28;20193;-64
2022/01/19 06:17:27;;;;;;;4.63;1.30;;;6.30;99.90;;;;;;5088449;28;20205;-67
2022/01/19 06:19:53;;;;;;;6.73;1.40;;;6.30;99.90;;;;;;5077110;28;20455;-65
2022/01/19 06:22:21;;;;;;;8.23;1.70;;;6.40;99.90;;;;;;5070984;28;20541;-65
2022/01/19 06:24:49;;;;;;;7.77;1.47;;;6.40;99.90;;;;;;5087961;28;20710;-64
2022/01/19 06:27:15;;;;;;;7.27;1.40;;;6.40;99.90;;;;;;5101222;28;20186;-66
2022/01/19 06:29:41;;;;;;;2.57;1.47;;;6.40;99.90;;;;;;5100228;28;20352;-66
2022/01/19 06:32:08;;;;;;;5.00;1.60;;;6.40;99.90;;;;;;5085165;28;20189;-65
2022/01/19 06:34:35;;;;;;;2.77;1.60;;;6.40;99.90;;;;;;5097886;28;20185;-65
2022/01/19 06:37:02;;;;;;;5.33;1.60;;;6.40;99.90;;;;;;5088021;28;20327;-66
2022/01/19 06:39:29;;;;;;;5.57;1.40;;;6.40;99.90;;;;;;5095037;28;20658;-66
2022/01/19 06:41:55;;;;;;;5.77;1.27;;;6.40;99.90;;;;;;5084708;28;20283;-65
2022/01/19 06:44:21;;;;;;;5.47;1.50;;;6.50;99.90;;;;;;5105505;28;20285;-64
2022/01/19 06:46:48;;;;;;;4.10;1.33;;;6.50;99.90;;;;;;5104286;28;20194;-65
2022/01/19 06:49:14;;;;;;;7.07;1.63;;;6.50;99.90;;;;;;5101104;28;20735;-64
2022/01/19 06:51:40;;;;;;;2.70;1.03;;;6.50;99.90;;;;;;5098541;28;21018;-66
2022/01/19 06:54:07;;;;;;;3.37;1.53;;;6.40;99.90;;;;;;5087852;28;20261;-66
2022/01/19 06:56:37;;;;;;;5.27;1.77;;;6.40;99.90;;;;;;5092419;28;20692;-65
2022/01/19 06:59:05;;;;;;;5.50;1.63;;;6.40;99.90;;;;;;5103446;28;20197;-64
2022/01/19 07:01:33;;;;;;;7.27;1.30;;;6.40;99.90;;;;;;5070799;28;20339;-66
2022/01/19 07:04:02;;;;;;;3.80;1.27;;;6.50;99.90;;;;;;5088561;28;20213;-66
2022/01/19 07:06:29;;;;;;;6.27;1.53;;;6.50;99.90;;;;;;5083569;28;20189;-66
2022/01/19 07:08:55;;;;;;;3.90;1.50;;;6.50;99.90;;;;;;5080369;28;20186;-67
2022/01/19 07:11:21;;;;;;;4.77;1.30;;;6.50;99.90;;;;;;5095808;28;20542;-66
2022/01/19 07:13:48;;;;;;;5.03;1.40;;;6.50;99.90;;;;;;5086021;28;20686;-65
2022/01/19 07:16:16;;;;;;;5.73;1.50;;;6.40;99.90;;;;;;5086347;28;20189;-64
2022/01/19 07:18:43;;;;;;;6.37;1.63;;;6.40;99.90;;;;;;5081211;28;20756;-65
2022/01/19 07:21:09;;;;;;;8.23;1.53;;;6.40;99.90;;;;;;5078352;28;20198;-67
2022/01/19 07:23:35;;;;;;;5.63;1.60;;;6.40;99.90;;;;;;5096110;28;20189;-64
2022/01/19 07:26:02;;;;;;;6.30;1.83;;;6.50;99.90;;;;;;5105658;28;20211;-64
2022/01/19 07:28:28;;;;;;;6.17;1.80;;;6.40;99.90;;;;;;5067508;28;20212;-65
2022/01/19 07:30:54;;;;;;;7.77;1.67;;;6.50;99.90;;;;;;5060780;28;20213;-66
2022/01/19 07:33:21;;;;;;;4.47;1.40;;;6.50;99.90;;;;;;5084686;28;20420;-66
2022/01/19 07:35:51;;;;;;;4.53;1.37;;;6.50;99.90;;;;;;5080637;28;20197;-66
2022/01/19 07:38:19;;;;;;;2.67;1.20;;;6.50;99.90;;;;;;5081686;28;20211;-69
2022/01/19 07:40:46;;;;;;;3.20;1.50;;;6.50;99.90;;;;;;5086195;28;20193;-65
2022/01/19 07:43:12;;;;;;;5.30;1.60;;;6.50;99.90;;;;;;5066856;28;20217;-66
2022/01/19 07:45:38;;;;;;;5.50;1.40;;;6.40;99.90;;;;;;5057203;28;20302;-67
2022/01/19 07:48:06;;;;;;;6.17;1.57;;;6.40;99.90;;;;;;5069716;27;20240;-67
2022/01/19 07:50:33;;;;;;;4.67;1.77;;;6.40;99.90;;;;;;5086188;27;20236;-66
2022/01/19 07:52:59;;;;;;;6.37;1.30;;;6.40;99.90;;;;;;5079189;27;20201;-66
2022/01/19 07:55:26;;;;;;;6.00;1.20;;;6.50;99.90;;;;;;5099269;27;20534;-64
2022/01/19 07:57:52;;;;;;;5.93;1.63;;;6.50;99.90;;;;;;5082729;28;20745;-66
2022/01/19 08:00:22;;;;;;;5.57;1.43;;;6.50;99.90;;;;;;5092917;28;20563;-66
2022/01/19 08:02:49;;;;;;;4.67;1.40;;;6.50;99.90;;;;;;5076172;28;20205;-65
2022/01/19 08:05:17;;;;;;;7.43;1.40;;;6.50;99.90;;;;;;5078003;28;20643;-66
2022/01/19 08:07:44;;;;;;;5.47;1.40;;;6.50;99.90;;;;;;5082126;28;20239;-67
2022/01/19 08:10:12;;;;;;;6.90;1.07;;;6.50;99.90;;;;;;5100783;27;20227;-65
2022/01/19 08:12:39;;;;;;;7.10;1.40;;;6.50;99.90;;;;;;5080133;28;20204;-66
2022/01/19 08:15:07;;;;;;;7.33;1.20;;;6.40;99.90;;;;;;5062203;28;20259;-67
2022/01/19 08:17:33;;;;;;;3.80;1.00;;;6.40;99.90;;;;;;5102933;27;20752;-64
2022/01/19 08:20:00;;;;;;;3.47;0.90;;;6.30;99.90;;;;;;5077182;28;20542;-66
2022/01/19 08:22:27;;;;;;;5.53;1.47;;;6.40;99.90;;;;;;5099301;27;20264;-64
2022/01/19 08:24:53;;;;;;;4.70;1.63;;;6.40;99.90;;;;;;5070744;28;20714;-65
2022/01/19 08:27:20;;;;;;;9.03;1.43;;;6.40;99.90;;;;;;5077524;28;20197;-66
2022/01/19 08:29:46;;;;;;;4.40;1.27;;;6.50;99.90;;;;;;5060816;28;20682;-67
2022/01/19 08:32:16;;;;;;;4.83;1.57;;;6.50;99.90;;;;;;5079486;28;20209;-67
2022/01/19 08:34:43;;;;;;;2.10;1.13;;;6.50;99.90;;;;;;5060892;28;20217;-66
2022/01/19 08:37:14;;;;;;;4.27;1.30;;;6.50;99.90;;;;;;5057402;28;20355;-66
2022/01/19 08:39:44;;;;;;;2.00;0.97;;;6.50;99.90;;;;;;5078189;28;20217;-66
2022/01/19 08:42:11;;;;;;;3.97;1.17;;;6.50;99.90;;;;;;5058820;28;20246;-68
2022/01/19 08:44:39;;;;;;;5.53;1.30;;;6.40;99.90;;;;;;5058710;28;20201;-66
2022/01/19 08:47:06;;;;;;;5.27;0.87;;;6.40;99.90;;;;;;5072559;28;20208;-69
2022/01/19 08:49:34;;;;;;;3.23;1.30;;;6.40;99.90;;;;;;5072057;28;20904;-67
2022/01/19 08:52:04;;;;;;;5.80;1.40;;;6.40;99.90;;;;;;5073686;28;20278;-67
2022/01/19 08:54:32;;;;;;;3.53;1.27;;;6.40;99.90;;;;;;5081498;28;20217;-67
2022/01/19 08:57:01;;;;;;;3.33;1.43;;;6.40;99.90;;;;;;5074372;28;20213;-66
2022/01/19 08:59:29;;;;;;;6.80;1.90;;;6.40;99.90;;;;;;5075406;28;20221;-68
2022/01/19 09:01:56;;;;;;;4.83;1.50;;;6.50;99.90;;;;;;5076704;28;20232;-66
2022/01/19 09:04:23;;;;;;;3.83;1.20;;;6.50;99.90;;;;;;5072460;28;20228;-67
2022/01/19 09:06:58;;;;;;;5.80;1.27;;;6.50;99.90;;;;;;5091477;28;20205;-67
2022/01/19 09:09:25;;;;;;;7.67;2.80;;;6.60;99.90;;;;;;5072721;28;20205;-66
2022/01/19 09:11:51;;;;;;;8.33;2.30;;;6.50;99.90;;;;;;5059638;28;21503;-65
2022/01/19 09:14:18;;;;;;;8.70;1.53;;;6.40;99.90;;;;;;5076719;28;20425;-66
2022/01/19 09:16:49;;;;;;;3.20;1.80;;;6.40;99.90;;;;;;5073032;28;20763;-66
2022/01/19 09:19:17;;;;;;;9.10;2.20;;;6.30;99.90;;;;;;5075642;28;20685;-65
2022/01/19 09:21:45;;;;;;;10.13;1.60;;;6.30;99.90;;;;;;5092299;28;20469;-66
2022/01/19 09:24:12;;;;;;;3.50;0.83;;;6.30;99.90;;;;;;5090365;28;20190;-65
2022/01/19 09:26:39;;;;;;;6.27;1.43;;;6.30;99.90;;;;;;5097540;28;20272;-66
2022/01/19 09:29:05;;;;;;;5.87;0.93;;;6.40;99.90;;;;;;5086131;28;20221;-67
2022/01/19 09:31:34;;;;;;;2.93;1.30;;;6.40;99.90;;;;;;5065682;28;20210;-68
2022/01/19 09:34:14;;;;;;;4.27;1.10;;;6.50;99.90;;;;;;5074296;28;20206;-67
2022/01/19 09:36:49;;;;;;;4.43;1.10;;;6.50;99.90;;;;;;5072962;28;20269;-67
2022/01/19 09:39:27;;;;;;;7.90;1.20;;;6.40;99.90;;;;;;5056816;28;20205;-67
2022/01/19 09:41:56;;;;;;;2.27;1.00;;;6.40;99.90;;;;;;5076121;28;20203;-66
2022/01/19 09:44:27;;;;;;;5.13;1.00;;;6.40;99.90;;;;;;5074623;28;20201;-67
2022/01/19 09:46:54;;;;;;;4.93;1.40;;;6.40;99.90;;;;;;5067820;28;20201;-66
2022/01/19 09:49:22;;;;;;;2.67;1.00;;;6.40;99.90;;;;;;5061428;28;20672;-65
2022/01/19 09:51:51;;;;;;;4.50;1.10;;;6.40;99.90;;;;;;5094390;27;20209;-66
2022/01/19 09:54:22;;;;;;;3.20;0.90;;;6.60;99.90;;;;;;5098241;27;20260;-65
2022/01/19 09:56:50;;;;;;;3.23;0.80;;;6.70;99.90;;;;;;5069917;28;20665;-67
2022/01/19 09:59:17;;;;;;;4.27;1.00;;;6.80;99.90;;;;;;5104004;27;20759;-66
2022/01/19 10:02:03;;;;;;;5.80;1.10;;;6.90;99.90;;;;;;5091764;27;20597;-66
2022/01/19 10:04:34;;;;;;;5.77;1.13;;;6.90;99.90;;;;;;5029748;28;20231;-67
2022/01/19 10:07:22;;;;;;;5.93;0.93;;;7.00;99.90;;;;;;5027680;28;20218;-68
2022/01/19 10:09:53;;;;;;;5.43;1.40;;;7.00;99.90;;;;;;5037952;28;20678;-67
2022/01/19 10:18:25;;;;;;;5.20;1.33;;;6.90;99.90;;;;;;5034618;28;20214;-64
2022/01/19 10:21:16;;;;;;;3.93;1.30;;;6.80;99.90;;;;;;5036000;28;20230;-64
2022/01/19 10:23:50;;;;;;;3.77;1.13;;;6.70;99.90;;;;;;5028757;28;20199;-68
2022/01/19 10:26:35;;;;;;;3.13;1.27;;;6.70;99.90;;;;;;5062140;28;20186;-65
2022/01/19 10:29:08;;;;;;;2.13;0.90;;;6.70;99.90;;;;;;5048068;28;21099;-67
2022/01/19 10:31:43;;;;;;;3.40;1.30;;;6.70;99.90;;;;;;5058433;28;20283;-66
2022/01/19 10:34:18;;;;;;;3.37;1.30;;;6.80;99.90;;;;;;5046563;28;20190;-65
2022/01/19 10:37:02;;;;;;;3.20;1.10;;;6.80;99.90;;;;;;5034637;28;20712;-67
2022/01/19 10:39:50;;;;;;;5.30;1.30;;;6.80;99.90;;;;;;5032538;28;20669;-68
2022/01/19 10:42:31;;;;;;;1.70;1.10;;;6.70;99.90;;;;;;5053239;28;20265;-65
2022/01/19 10:45:10;;;;;;;4.70;1.20;;;6.80;99.90;;;;;;5051645;28;20194;-67
2022/01/19 10:47:58;;;;;;;2.03;1.30;;;6.80;99.90;;;;;;5050670;28;20198;-65
2022/01/19 10:50:30;;;;;;;2.77;1.07;;;6.80;99.90;;;;;;5062896;28;20183;-66
2022/01/19 10:53:00;;;;;;;1.33;0.80;;;6.80;99.90;;;;;;5053577;28;20302;-64
2022/01/19 10:55:38;;;;;;;4.73;1.40;;;6.80;99.90;;;;;;5035561;28;20250;-66
2022/01/19 10:58:14;;;;;;;4.70;1.37;;;6.80;99.90;;;;;;5045795;28;20318;-68
2022/01/19 11:00:52;;;;;;;2.77;1.37;;;6.80;99.90;;;;;;5053335;28;20198;-64
2022/01/19 11:03:28;;;;;;;4.80;1.20;;;6.80;99.90;;;;;;5044444;28;20231;-65
2022/01/19 11:06:01;;;;;;;5.73;1.40;;;7.50;99.90;;;;;;5033493;28;20238;-66
2022/01/19 11:08:29;;;;;;;6.20;1.20;;;8.10;99.90;;;;;;5034386;28;20212;-65
2022/01/19 11:11:01;;;;;;;2.80;1.20;;;8.00;99.90;;;;;;5049626;28;20222;-67
2022/01/19 11:13:38;;;;;;;2.43;1.27;;;7.70;99.90;;;;;;5039120;28;20744;-65
2022/01/19 11:16:05;;;;;;;3.83;1.60;;;7.50;99.90;;;;;;5057130;28;20728;-67
2022/01/19 11:18:36;;;;;;;6.77;1.60;;;7.20;99.90;;;;;;5057568;28;20691;-64
2022/01/19 11:21:12;;;;;;;5.10;1.43;;;7.30;99.90;;;;;;5027719;28;20210;-66
2022/01/19 11:24:00;;;;;;;2.40;1.10;;;7.50;99.90;;;;;;5043426;28;20210;-67
2022/01/19 11:26:32;;;;;;;6.63;1.40;;;7.50;99.90;;;;;;5054555;28;20299;-67
2022/01/19 11:29:19;;;;;;;9.77;1.37;;;7.40;99.90;;;;;;5035057;28;20295;-65
2022/01/19 11:31:47;;;;;;;3.97;0.90;;;7.40;99.90;;;;;;5040437;28;20239;-68
2022/01/19 11:34:13;;;;;;;3.77;0.80;;;7.80;99.90;;;;;;5024194;28;20238;-66
2022/01/19 11:36:43;;;;;;;8.80;1.10;;;8.00;99.90;;;;;;5035859;28;20215;-67
2022/01/19 11:39:22;;;;;;;5.97;1.20;;;8.00;99.90;;;;;;5032159;28;20211;-64
2022/01/19 11:41:57;;;;;;;2.67;0.80;;;7.80;99.90;;;;;;5040272;28;20211;-66
2022/01/19 11:44:33;;;;;;;2.63;0.73;;;7.90;99.90;;;;;;5043941;28;20306;-66
2022/01/19 11:47:16;;;;;;;8.17;0.80;;;7.90;99.90;;;;;;5035347;28;20186;-65
2022/01/19 11:49:57;;;;;;;1.20;0.70;;;7.80;99.90;;;;;;5052387;28;20192;-64
2022/01/19 11:52:38;;;;;;;5.37;1.00;;;7.70;99.90;;;;;;5037920;28;20195;-67
2022/01/19 11:55:14;;;;;;;4.27;0.83;;;7.50;99.90;;;;;;5031343;28;20215;-65
2022/01/19 11:57:43;;;;;;;2.10;0.83;;;7.40;99.90;;;;;;5054176;28;20210;-68
2022/01/19 12:00:21;;;;;;;2.13;1.07;;;7.30;99.90;;;;;;5017812;28;20314;-65
2022/01/19 12:02:57;;;;;;;5.33;1.10;;;7.20;99.90;;;;;;5027920;28;20215;-67
2022/01/19 12:05:36;;;;;;;3.70;1.20;;;7.10;99.90;;;;;;5036137;28;20216;-70
2022/01/19 12:08:23;;;;;;;2.73;0.80;;;7.10;99.90;;;;;;5023115;28;20207;-66
2022/01/19 12:10:56;;;;;;;5.60;1.23;;;7.00;99.90;;;;;;5056072;28;20239;-68
2022/01/19 12:16:19;;;;;;;5.90;1.33;;;6.90;99.90;;;;;;5054815;28;20822;-65
2022/01/19 12:18:58;;;;;;;4.33;1.20;;;6.90;99.90;;;;;;5050743;28;20206;-65
2022/01/19 12:21:43;;;;;;;2.37;1.30;;;7.00;99.90;;;;;;5040548;28;20183;-65
2022/01/19 12:24:29;;;;;;;7.03;1.30;;;7.20;99.90;;;;;;5056284;28;20262;-64
2022/01/19 12:27:07;;;;;;;3.07;1.27;;;7.20;99.90;;;;;;5056213;28;20203;-66
2022/01/19 12:29:39;;;;;;;4.63;1.13;;;7.10;99.90;;;;;;5036785;28;20787;-66
2022/01/19 12:32:26;;;;;;;2.17;0.90;;;7.10;99.90;;;;;;5054165;28;20219;-65
2022/01/19 12:35:11;;;;;;;1.27;0.60;;;7.20;99.90;;;;;;4981046;28;21143;-64
2022/01/19 12:37:46;;;;;;;5.10;1.37;;;7.20;99.90;;;;;;5052935;28;20747;-64
2022/01/19 12:40:18;;;;;;;3.60;1.20;;;7.20;99.90;;;;;;5053481;28;20199;-64
2022/01/19 12:43:01;;;;;;;2.13;0.80;;;7.30;99.90;;;;;;5040332;28;20191;-67
2022/01/19 12:45:50;;;;;;;1.63;1.13;;;7.20;99.90;;;;;;5052509;28;20260;-66
2022/01/19 12:48:55;;;;;;;2.33;1.10;;;7.00;99.90;;;;;;5050552;28;20233;-64
2022/01/19 12:51:42;;;;;;;2.47;0.97;;;7.00;99.90;;;;;;4955931;28;20216;-64
2022/01/19 12:54:16;;;;;;;5.90;1.20;;;7.00;99.90;;;;;;5017242;28;20223;-69
2022/01/19 12:57:15;;;;;;;3.13;1.30;;;7.10;99.90;;;;;;5035817;28;20302;-65
2022/01/19 12:59:48;;;;;;;2.13;1.00;;;7.10;99.90;;;;;;5034650;28;20227;-67
2022/01/19 13:02:20;;;;;;;0.70;0.70;;;7.00;99.90;;;;;;5037108;28;20219;-66
2022/01/19 13:04:48;;;;;;;3.00;1.37;;;7.00;99.90;;;;;;5039084;28;20241;-66
2022/01/19 13:07:23;;;;;;;2.60;1.03;;;6.90;99.90;;;;;;5057504;28;20204;-66
2022/01/19 13:12:48;;;;;;;2.40;1.20;;;6.90;99.90;;;;;;5043749;28;20211;-67
2022/01/19 13:15:17;;;;;;;2.57;1.43;;;6.90;99.90;;;;;;5055376;28;20854;-67
2022/01/19 13:17:48;;;;;;;4.67;1.13;;;6.90;99.90;;;;;;5043055;28;20211;-66
2022/01/19 13:20:23;;;;;;;1.63;0.70;;;6.80;99.90;;;;;;5042667;28;20183;-66
2022/01/19 13:22:59;;;;;;;2.97;1.27;;;6.80;99.90;;;;;;5042445;28;20202;-66
2022/01/19 13:25:33;;;;;;;7.40;1.20;;;6.90;99.90;;;;;;5044238;28;20202;-65
2022/01/19 13:28:02;;;;;;;4.10;1.10;;;6.90;99.90;;;;;;5059779;28;20211;-66
2022/01/19 13:30:36;;;;;;;4.03;1.10;;;6.90;99.90;;;;;;5044394;28;20195;-65
2022/01/19 13:33:13;;;;;;;1.87;1.10;;;6.80;99.90;;;;;;5031760;28;20192;-66
2022/01/19 13:35:40;;;;;;;4.67;1.10;;;6.80;99.90;;;;;;5059760;28;20222;-66
2022/01/19 13:38:13;;;;;;;1.70;0.90;;;6.90;99.90;;;;;;5043214;28;20304;-64
2022/01/19 13:40:43;;;;;;;2.73;1.00;;;6.80;99.90;;;;;;5043169;28;20245;-67
2022/01/19 13:43:18;;;;;;;4.67;0.87;;;6.80;99.90;;;;;;5054759;28;20298;-67
2022/01/19 13:51:06;;;;;;;3.90;1.00;;;6.50;99.90;;;;;;5062097;28;20199;-65
2022/01/19 13:53:37;;;;;;;5.13;1.03;;;6.50;99.90;;;;;;5044397;28;20810;-66
2022/01/19 13:56:14;;;;;;;3.20;1.00;;;6.50;99.90;;;;;;5028477;28;20238;-67
2022/01/19 13:58:54;;;;;;;2.53;0.80;;;6.60;99.90;;;;;;5043175;28;20211;-68
2022/01/19 14:01:41;;;;;;;3.50;0.90;;;6.60;99.90;;;;;;5040601;28;20184;-68
2022/01/19 14:04:12;;;;;;;2.07;1.00;;;6.60;99.90;;;;;;5037545;28;20206;-67
2022/01/19 14:06:43;;;;;;;6.63;1.00;;;6.70;99.90;;;;;;5040091;28;20297;-69
2022/01/19 14:09:38;;;;;;;3.83;1.23;;;6.70;99.90;;;;;;5045406;28;20830;-64
2022/01/19 14:12:16;;;;;;;1.83;0.80;;;6.80;99.90;;;;;;5042860;28;20215;-63
2022/01/19 14:14:49;;;;;;;4.70;1.13;;;6.80;99.90;;;;;;5047041;28;20187;-67
2022/01/19 14:17:36;;;;;;;2.40;1.10;;;6.70;99.90;;;;;;5058736;28;20219;-64
2022/01/19 14:20:13;;;;;;;2.37;0.90;;;6.70;99.90;;;;;;5041272;28;20679;-67
2022/01/19 14:22:39;;;;;;;4.10;1.27;;;6.60;99.90;;;;;;5063685;28;20283;-66
2022/01/19 14:25:15;;;;;;;3.03;1.00;;;6.60;99.90;;;;;;5044092;28;20766;-66
2022/01/19 14:27:54;;;;;;;1.17;0.87;;;6.50;99.90;;;;;;5053307;28;20202;-65
2022/01/19 14:30:32;;;;;;;2.33;0.90;;;6.40;99.90;;;;;;5066882;28;20183;-67
2022/01/19 14:33:14;;;;;;;4.53;1.20;;;6.30;99.90;;;;;;5036492;28;20216;-65
2022/01/19 14:35:41;;;;;;;2.87;0.80;;;6.30;99.90;;;;;;5035342;28;20208;-65
2022/01/19 14:38:41;;;;;;;3.13;0.90;;;6.20;99.90;;;;;;5035803;28;20280;-64
2022/01/19 14:41:17;;;;;;;2.73;1.13;;;6.20;99.90;;;;;;4989153;28;20313;-67
2022/01/19 14:43:58;;;;;;;2.50;0.93;;;6.10;99.90;;;;;;5021839;28;20203;-65
2022/01/19 14:49:41;;;;;;;2.20;1.10;;;6.20;99.90;;;;;;5030791;28;20432;-66
2022/01/19 14:52:08;;;;;;;1.37;1.00;;;6.20;99.90;;;;;;5050671;28;20208;-65
2022/01/19 14:54:34;;;;;;;2.43;1.10;;;6.10;99.90;;;;;;5034221;28;20756;-65
2022/01/19 14:57:03;;;;;;;1.33;0.87;;;6.10;99.90;;;;;;5050604;28;20628;-68
2022/01/19 14:59:40;;;;;;;1.77;1.00;;;6.10;99.90;;;;;;5043838;28;20222;-65
2022/01/19 15:02:07;;;;;;;1.97;1.07;;;6.10;99.90;;;;;;5027115;28;20179;-65
2022/01/19 15:04:39;;;;;;;7.23;1.10;;;6.00;99.90;;;;;;5035190;28;20199;-66
2022/01/19 15:07:05;;;;;;;2.57;1.17;;;6.00;99.90;;;;;;5045836;28;20180;-67